sensor_id;sensor_type;location;lat;lon;timestamp;pressure;altitude;pressure_sealevel;temperature;humidity
61337;BME280;47212;41.326;2.104;2023-03-14T00:04:21;100781.31;;;18.54;39.72
61337;BME280;47212;41.326;2.104;2023-03-14T00:09:23;100788.59;;;18.50;39.85
61337;BME280;47212;41.326;2.104;2023-03-14T00:14:26;100785.16;;;18.44;40.07
61337;BME280;47212;41.326;2.104;2023-03-14T00:19:28;100808.13;;;18.39;40.34
61337;BME280;47212;41.326;2.104;2023-03-14T00:24:31;100814.59;;;18.35;40.19
61337;BME280;47212;41.326;2.104;2023-03-14T00:29:34;100801.13;;;18.33;39.93
61337;BME280;47212;41.326;2.104;2023-03-14T00:34:39;100808.38;;;18.29;39.78
61337;BME280;47212;41.326;2.104;2023-03-14T00:39:42;100797.00;;;18.22;40.91
61337;BME280;47212;41.326;2.104;2023-03-14T00:44:45;100806.91;;;18.09;39.03
61337;BME280;47212;41.326;2.104;2023-03-14T00:49:48;100830.38;;;18.07;40.03
61337;BME280;47212;41.326;2.104;2023-03-14T00:54:50;100842.81;;;18.04;38.71
61337;BME280;47212;41.326;2.104;2023-03-14T00:59:53;100873.44;;;18.03;39.72
61337;BME280;47212;41.326;2.104;2023-03-14T01:04:57;100878.75;;;17.99;40.00
61337;BME280;47212;41.326;2.104;2023-03-14T01:10:32;100897.31;;;17.94;36.27
61337;BME280;47212;41.326;2.104;2023-03-14T01:15:43;100915.56;;;17.90;38.67
61337;BME280;47212;41.326;2.104;2023-03-14T01:20:59;100919.75;;;17.87;38.83
61337;BME280;47212;41.326;2.104;2023-03-14T01:26:09;100934.44;;;17.82;37.01
61337;BME280;47212;41.326;2.104;2023-03-14T01:31:14;100935.69;;;17.76;37.39
61337;BME280;47212;41.326;2.104;2023-03-14T01:36:16;100932.09;;;17.76;38.30
61337;BME280;47212;41.326;2.104;2023-03-14T01:41:24;100955.25;;;17.75;37.57
61337;BME280;47212;41.326;2.104;2023-03-14T01:46:42;100961.38;;;17.72;37.30
61337;BME280;47212;41.326;2.104;2023-03-14T01:52:01;100955.66;;;17.68;37.26
61337;BME280;47212;41.326;2.104;2023-03-14T01:57:30;100969.59;;;17.58;37.20
61337;BME280;47212;41.326;2.104;2023-03-14T02:05:19;100959.75;;;17.38;37.20
61337;BME280;47212;41.326;2.104;2023-03-14T02:10:38;100952.31;;;17.39;37.88
61337;BME280;47212;41.326;2.104;2023-03-14T02:15:42;100950.19;;;17.36;38.89
61337;BME280;47212;41.326;2.104;2023-03-14T02:26:16;100934.34;;;17.28;37.13
61337;BME280;47212;41.326;2.104;2023-03-14T02:31:22;100948.47;;;17.21;39.65
61337;BME280;47212;41.326;2.104;2023-03-14T02:36:25;100945.00;;;17.15;39.48
61337;BME280;47212;41.326;2.104;2023-03-14T02:41:30;100938.16;;;17.13;40.28
61337;BME280;47212;41.326;2.104;2023-03-14T02:46:37;100941.81;;;17.08;39.77
61337;BME280;47212;41.326;2.104;2023-03-14T02:51:41;100958.63;;;17.07;39.50
61337;BME280;47212;41.326;2.104;2023-03-14T02:56:45;100959.44;;;17.07;39.62
61337;BME280;47212;41.326;2.104;2023-03-14T03:01:48;100947.31;;;17.08;39.17
61337;BME280;47212;41.326;2.104;2023-03-14T03:06:52;100938.78;;;17.10;39.49
61337;BME280;47212;41.326;2.104;2023-03-14T03:11:55;100937.97;;;17.09;39.94
61337;BME280;47212;41.326;2.104;2023-03-14T03:17:00;100940.19;;;17.07;39.40
61337;BME280;47212;41.326;2.104;2023-03-14T03:22:03;100944.66;;;17.03;39.18
61337;BME280;47212;41.326;2.104;2023-03-14T03:27:09;100939.53;;;16.97;38.47
61337;BME280;47212;41.326;2.104;2023-03-14T03:32:11;100951.38;;;16.97;39.00
61337;BME280;47212;41.326;2.104;2023-03-14T03:37:14;100953.59;;;16.95;38.75
61337;BME280;47212;41.326;2.104;2023-03-14T03:42:17;100974.56;;;16.91;39.08
61337;BME280;47212;41.326;2.104;2023-03-14T03:47:19;100981.47;;;16.88;39.18
61337;BME280;47212;41.326;2.104;2023-03-14T03:52:22;100976.56;;;16.85;39.59
61337;BME280;47212;41.326;2.104;2023-03-14T03:57:24;100982.44;;;16.79;39.84
61337;BME280;47212;41.326;2.104;2023-03-14T04:02:26;100986.91;;;16.75;39.76
61337;BME280;47212;41.326;2.104;2023-03-14T04:07:31;100978.13;;;16.73;39.55
61337;BME280;47212;41.326;2.104;2023-03-14T04:12:34;100980.16;;;16.67;39.80
61337;BME280;47212;41.326;2.104;2023-03-14T04:17:44;100974.41;;;16.64;39.86
61337;BME280;47212;41.326;2.104;2023-03-14T04:22:48;100972.53;;;16.59;40.23
61337;BME280;47212;41.326;2.104;2023-03-14T04:27:51;100980.34;;;16.52;39.99
61337;BME280;47212;41.326;2.104;2023-03-14T04:33:04;100986.16;;;16.45;40.35
61337;BME280;47212;41.326;2.104;2023-03-14T04:38:10;101015.94;;;16.38;40.43
61337;BME280;47212;41.326;2.104;2023-03-14T04:43:14;101007.75;;;16.33;40.40
61337;BME280;47212;41.326;2.104;2023-03-14T04:48:23;101012.78;;;16.26;40.43
61337;BME280;47212;41.326;2.104;2023-03-14T04:53:29;101006.78;;;16.24;40.74
61337;BME280;47212;41.326;2.104;2023-03-14T04:58:34;101004.69;;;16.16;40.83
61337;BME280;47212;41.326;2.104;2023-03-14T05:12:47;101022.59;;;16.32;40.98
61337;BME280;47212;41.326;2.104;2023-03-14T05:18:08;101043.00;;;16.26;40.81
61337;BME280;47212;41.326;2.104;2023-03-14T05:23:41;101065.63;;;16.18;40.93
61337;BME280;47212;41.326;2.104;2023-03-14T05:29:06;101065.44;;;16.09;40.90
61337;BME280;47212;41.326;2.104;2023-03-14T05:34:19;101077.88;;;16.02;41.63
61337;BME280;47212;41.326;2.104;2023-03-14T05:39:44;101076.81;;;15.98;41.63
61337;BME280;47212;41.326;2.104;2023-03-14T05:45:04;101059.88;;;15.90;41.81
61337;BME280;47212;41.326;2.104;2023-03-14T05:50:27;101041.28;;;15.82;41.32
61337;BME280;47212;41.326;2.104;2023-03-14T05:55:52;101039.19;;;15.74;41.46
61337;BME280;47212;41.326;2.104;2023-03-14T06:01:11;101025.84;;;15.63;41.47
61337;BME280;47212;41.326;2.104;2023-03-14T06:06:37;101022.28;;;15.57;41.60
61337;BME280;47212;41.326;2.104;2023-03-14T06:11:41;101032.19;;;15.53;42.19
61337;BME280;47212;41.326;2.104;2023-03-14T06:16:45;101047.06;;;15.47;42.14
61337;BME280;47212;41.326;2.104;2023-03-14T06:21:51;101044.66;;;15.40;42.52
61337;BME280;47212;41.326;2.104;2023-03-14T06:26:54;101044.41;;;15.37;42.65
61337;BME280;47212;41.326;2.104;2023-03-14T06:31:56;101040.06;;;15.30;42.73
61337;BME280;47212;41.326;2.104;2023-03-14T06:37:00;101041.22;;;15.24;42.62
61337;BME280;47212;41.326;2.104;2023-03-14T06:42:02;101050.00;;;15.21;42.74
61337;BME280;47212;41.326;2.104;2023-03-14T06:47:04;101049.47;;;15.19;42.59
61337;BME280;47212;41.326;2.104;2023-03-14T06:52:09;101062.94;;;15.16;43.02
61337;BME280;47212;41.326;2.104;2023-03-14T06:57:11;101075.81;;;15.15;42.57
61337;BME280;47212;41.326;2.104;2023-03-14T07:02:13;101068.72;;;15.14;41.85
61337;BME280;47212;41.326;2.104;2023-03-14T07:07:17;101086.19;;;15.23;42.45
61337;BME280;47212;41.326;2.104;2023-03-14T07:12:19;101084.88;;;15.50;42.29
61337;BME280;47212;41.326;2.104;2023-03-14T07:17:22;101063.63;;;16.00;41.74
61337;BME280;47212;41.326;2.104;2023-03-14T07:22:24;101062.13;;;16.36;39.80
61337;BME280;47212;41.326;2.104;2023-03-14T07:27:30;101058.38;;;16.94;40.12
61337;BME280;47212;41.326;2.104;2023-03-14T07:32:41;101071.44;;;17.58;38.25
61337;BME280;47212;41.326;2.104;2023-03-14T07:37:44;101075.84;;;18.05;39.22
61337;BME280;47212;41.326;2.104;2023-03-14T07:42:48;101089.34;;;18.48;38.05
61337;BME280;47212;41.326;2.104;2023-03-14T07:48:00;101093.75;;;18.76;34.83
61337;BME280;47212;41.326;2.104;2023-03-14T07:53:03;101099.94;;;19.09;37.43
61337;BME280;47212;41.326;2.104;2023-03-14T07:58:05;101109.25;;;19.36;33.54
61337;BME280;47212;41.326;2.104;2023-03-14T08:03:08;101122.50;;;19.48;33.60
61337;BME280;47212;41.326;2.104;2023-03-14T08:08:10;101131.56;;;19.62;35.66
61337;BME280;47212;41.326;2.104;2023-03-14T08:13:12;101130.25;;;19.59;35.39
61337;BME280;47212;41.326;2.104;2023-03-14T08:18:15;101132.00;;;19.78;36.31
61337;BME280;47212;41.326;2.104;2023-03-14T08:23:17;101119.56;;;19.89;35.98
61337;BME280;47212;41.326;2.104;2023-03-14T08:28:20;101130.50;;;19.94;34.98
61337;BME280;47212;41.326;2.104;2023-03-14T08:33:23;101135.41;;;19.97;35.50
61337;BME280;47212;41.326;2.104;2023-03-14T08:38:25;101120.69;;;19.88;34.24
61337;BME280;47212;41.326;2.104;2023-03-14T08:43:28;101128.75;;;19.98;34.89
61337;BME280;47212;41.326;2.104;2023-03-14T08:48:30;101130.00;;;20.14;35.24
61337;BME280;47212;41.326;2.104;2023-03-14T08:53:32;101136.69;;;20.22;34.63
61337;BME280;47212;41.326;2.104;2023-03-14T08:58:36;101154.91;;;20.23;34.83
61337;BME280;47212;41.326;2.104;2023-03-14T09:03:39;101161.22;;;20.46;33.49
61337;BME280;47212;41.326;2.104;2023-03-14T09:08:41;101172.84;;;20.65;33.90
61337;BME280;47212;41.326;2.104;2023-03-14T09:13:44;101184.28;;;20.72;34.17
61337;BME280;47212;41.326;2.104;2023-03-14T09:18:46;101174.75;;;20.87;34.33
61337;BME280;47212;41.326;2.104;2023-03-14T09:23:48;101182.59;;;20.93;33.78
61337;BME280;47212;41.326;2.104;2023-03-14T09:28:51;101183.25;;;21.08;34.30
61337;BME280;47212;41.326;2.104;2023-03-14T09:33:53;101194.53;;;21.20;32.66
61337;BME280;47212;41.326;2.104;2023-03-14T09:39:02;101198.16;;;21.38;33.00
61337;BME280;47212;41.326;2.104;2023-03-14T09:49:36;101207.63;;;21.62;31.12
61337;BME280;47212;41.326;2.104;2023-03-14T09:54:44;101222.63;;;21.44;30.92
61337;BME280;47212;41.326;2.104;2023-03-14T09:59:49;101215.44;;;21.43;32.21
61337;BME280;47212;41.326;2.104;2023-03-14T10:04:52;101230.75;;;21.49;32.25
61337;BME280;47212;41.326;2.104;2023-03-14T10:09:55;101228.53;;;21.69;32.20
61337;BME280;47212;41.326;2.104;2023-03-14T10:15:03;101239.28;;;21.96;31.16
61337;BME280;47212;41.326;2.104;2023-03-14T10:20:05;101226.25;;;22.14;32.38
61337;BME280;47212;41.326;2.104;2023-03-14T10:25:28;101212.19;;;22.28;29.82
61337;BME280;47212;41.326;2.104;2023-03-14T10:35:53;101229.81;;;22.32;30.54
61337;BME280;47212;41.326;2.104;2023-03-14T10:40:57;101241.34;;;22.60;31.75
61337;BME280;47212;41.326;2.104;2023-03-14T10:46:14;101240.03;;;22.57;29.66
61337;BME280;47212;41.326;2.104;2023-03-14T10:51:36;101230.41;;;22.46;31.59
61337;BME280;47212;41.326;2.104;2023-03-14T10:56:38;101229.44;;;22.50;32.05
61337;BME280;47212;41.326;2.104;2023-03-14T11:07:24;101218.72;;;22.32;30.54
61337;BME280;47212;41.326;2.104;2023-03-14T11:24:33;101222.50;;;22.18;28.67
61337;BME280;47212;41.326;2.104;2023-03-14T11:39:51;101228.31;;;22.34;29.44
61337;BME280;47212;41.326;2.104;2023-03-14T11:45:00;101227.81;;;22.49;29.62
61337;BME280;47212;41.326;2.104;2023-03-14T11:50:24;101226.81;;;22.54;28.02
61337;BME280;47212;41.326;2.104;2023-03-14T11:55:35;101237.38;;;22.69;28.63
61337;BME280;47212;41.326;2.104;2023-03-14T12:00:47;101212.03;;;22.88;28.91
61337;BME280;47212;41.326;2.104;2023-03-14T12:06:28;101217.84;;;23.04;27.94
61337;BME280;47212;41.326;2.104;2023-03-14T12:11:43;101211.22;;;23.17;30.16
61337;BME280;47212;41.326;2.104;2023-03-14T12:16:57;101187.25;;;23.33;28.76
61337;BME280;47212;41.326;2.104;2023-03-14T12:27:13;101205.28;;;23.57;28.52
61337;BME280;47212;41.326;2.104;2023-03-14T12:32:35;101194.09;;;23.65;28.72
61337;BME280;47212;41.326;2.104;2023-03-14T12:37:42;101194.50;;;23.76;27.00
61337;BME280;47212;41.326;2.104;2023-03-14T12:42:51;101172.09;;;23.93;27.06
61337;BME280;47212;41.326;2.104;2023-03-14T12:48:09;101166.78;;;24.00;26.83
61337;BME280;47212;41.326;2.104;2023-03-14T13:04:04;101137.16;;;24.37;26.10
61337;BME280;47212;41.326;2.104;2023-03-14T13:14:35;101130.88;;;24.40;27.42
61337;BME280;47212;41.326;2.104;2023-03-14T13:19:38;101137.72;;;24.31;27.06
61337;BME280;47212;41.326;2.104;2023-03-14T13:24:40;101121.41;;;24.21;27.67
61337;BME280;47212;41.326;2.104;2023-03-14T13:29:43;101132.50;;;24.08;27.24
61337;BME280;47212;41.326;2.104;2023-03-14T13:34:45;101129.91;;;23.91;27.64
61337;BME280;47212;41.326;2.104;2023-03-14T13:39:54;101112.06;;;23.80;26.28
61337;BME280;47212;41.326;2.104;2023-03-14T13:44:59;101116.31;;;23.77;27.82
61337;BME280;47212;41.326;2.104;2023-03-14T13:50:02;101106.50;;;23.80;27.24
61337;BME280;47212;41.326;2.104;2023-03-14T13:55:05;101099.66;;;23.77;27.00
61337;BME280;47212;41.326;2.104;2023-03-14T14:00:19;101097.78;;;23.69;25.67
61337;BME280;47212;41.326;2.104;2023-03-14T14:05:27;101097.66;;;23.66;28.11
61337;BME280;47212;41.326;2.104;2023-03-14T14:10:39;101083.97;;;23.61;26.93
61337;BME280;47212;41.326;2.104;2023-03-14T14:15:44;101098.31;;;23.63;27.18
61337;BME280;47212;41.326;2.104;2023-03-14T14:20:47;101093.25;;;23.65;27.61
61337;BME280;47212;41.326;2.104;2023-03-14T14:25:51;101102.03;;;23.67;26.82
61337;BME280;47212;41.326;2.104;2023-03-14T14:36:14;101083.03;;;23.57;25.05
61337;BME280;47212;41.326;2.104;2023-03-14T14:41:19;101088.75;;;23.51;26.55
61337;BME280;47212;41.326;2.104;2023-03-14T14:47:04;101091.19;;;23.53;26.59
61337;BME280;47212;41.326;2.104;2023-03-14T14:52:13;101085.09;;;23.39;25.24
61337;BME280;47212;41.326;2.104;2023-03-14T14:57:21;101076.97;;;23.34;24.56
61337;BME280;47212;41.326;2.104;2023-03-14T15:02:35;101080.50;;;23.22;24.82
61337;BME280;47212;41.326;2.104;2023-03-14T15:07:39;101066.56;;;23.10;26.24
61337;BME280;47212;41.326;2.104;2023-03-14T15:12:41;101055.84;;;23.00;25.96
61337;BME280;47212;41.326;2.104;2023-03-14T15:17:44;101056.38;;;22.93;26.71
61337;BME280;47212;41.326;2.104;2023-03-14T15:22:53;101064.09;;;22.87;24.86
61337;BME280;47212;41.326;2.104;2023-03-14T15:27:55;101076.25;;;22.74;26.48
61337;BME280;47212;41.326;2.104;2023-03-14T15:32:57;101075.16;;;22.67;26.65
61337;BME280;47212;41.326;2.104;2023-03-14T15:38:05;101082.03;;;22.61;26.92
61337;BME280;47212;41.326;2.104;2023-03-14T15:43:08;101077.00;;;22.54;26.72
61337;BME280;47212;41.326;2.104;2023-03-14T15:48:20;101077.00;;;22.54;25.64
61337;BME280;47212;41.326;2.104;2023-03-14T15:53:23;101084.19;;;22.55;27.36
61337;BME280;47212;41.326;2.104;2023-03-14T15:58:25;101097.94;;;22.43;26.99
61337;BME280;47212;41.326;2.104;2023-03-14T16:03:37;101094.91;;;22.27;27.17
61337;BME280;47212;41.326;2.104;2023-03-14T16:08:39;101110.94;;;22.13;27.29
61337;BME280;47212;41.326;2.104;2023-03-14T16:13:46;101085.69;;;21.97;27.32
61337;BME280;47212;41.326;2.104;2023-03-14T16:18:49;101079.84;;;21.90;27.59
61337;BME280;47212;41.326;2.104;2023-03-14T16:23:51;101093.22;;;21.88;27.49
61337;BME280;47212;41.326;2.104;2023-03-14T16:28:53;101100.59;;;21.75;27.84
61337;BME280;47212;41.326;2.104;2023-03-14T16:34:02;101104.66;;;21.60;27.40
61337;BME280;47212;41.326;2.104;2023-03-14T16:39:05;101102.69;;;21.52;28.03
61337;BME280;47212;41.326;2.104;2023-03-14T16:44:07;101135.63;;;21.45;28.41
61337;BME280;47212;41.326;2.104;2023-03-14T16:49:09;101141.66;;;21.39;28.60
61337;BME280;47212;41.326;2.104;2023-03-14T16:54:11;101136.59;;;21.32;29.14
61337;BME280;47212;41.326;2.104;2023-03-14T16:59:14;101162.94;;;21.21;28.97
61337;BME280;47212;41.326;2.104;2023-03-14T17:04:22;101166.16;;;21.06;29.01
61337;BME280;47212;41.326;2.104;2023-03-14T17:09:24;101165.81;;;20.90;29.81
61337;BME280;47212;41.326;2.104;2023-03-14T17:14:27;101180.44;;;20.82;30.21
61337;BME280;47212;41.326;2.104;2023-03-14T17:19:39;101188.03;;;20.76;30.27
61337;BME280;47212;41.326;2.104;2023-03-14T17:24:41;101202.16;;;20.66;30.41
61337;BME280;47212;41.326;2.104;2023-03-14T17:29:45;101197.06;;;20.59;30.88
61337;BME280;47212;41.326;2.104;2023-03-14T17:34:51;101212.00;;;20.50;30.76
61337;BME280;47212;41.326;2.104;2023-03-14T17:39:55;101229.97;;;20.39;31.50
61337;BME280;47212;41.326;2.104;2023-03-14T17:44:57;101246.19;;;20.31;31.69
61337;BME280;47212;41.326;2.104;2023-03-14T17:50:00;101262.03;;;20.17;31.66
61337;BME280;47212;41.326;2.104;2023-03-14T17:55:06;101275.78;;;20.09;31.86
61337;BME280;47212;41.326;2.104;2023-03-14T18:00:09;101295.69;;;19.97;32.23
61337;BME280;47212;41.326;2.104;2023-03-14T18:05:12;101312.66;;;19.90;32.29
61337;BME280;47212;41.326;2.104;2023-03-14T18:10:15;101329.78;;;19.79;34.68
61337;BME280;47212;41.326;2.104;2023-03-14T18:15:22;101348.81;;;19.39;38.30
61337;BME280;47212;41.326;2.104;2023-03-14T18:20:24;101356.16;;;19.16;38.97
61337;BME280;47212;41.326;2.104;2023-03-14T18:25:26;101361.72;;;18.97;39.67
61337;BME280;47212;41.326;2.104;2023-03-14T18:30:28;101362.19;;;18.86;40.41
61337;BME280;47212;41.326;2.104;2023-03-14T18:35:31;101366.25;;;18.74;41.63
61337;BME280;47212;41.326;2.104;2023-03-14T18:40:34;101364.50;;;18.65;40.74
61337;BME280;47212;41.326;2.104;2023-03-14T18:45:37;101377.75;;;18.63;40.48
61337;BME280;47212;41.326;2.104;2023-03-14T18:50:40;101385.47;;;18.61;39.89
61337;BME280;47212;41.326;2.104;2023-03-14T18:55:42;101400.94;;;18.62;40.16
61337;BME280;47212;41.326;2.104;2023-03-14T19:00:44;101420.28;;;18.57;40.76
61337;BME280;47212;41.326;2.104;2023-03-14T19:05:47;101430.94;;;18.44;41.80
61337;BME280;47212;41.326;2.104;2023-03-14T19:10:54;101444.81;;;18.39;42.33
61337;BME280;47212;41.326;2.104;2023-03-14T19:15:57;101460.38;;;18.30;42.82
61337;BME280;47212;41.326;2.104;2023-03-14T19:26:08;101475.75;;;18.12;44.96
61337;BME280;47212;41.326;2.104;2023-03-14T19:31:12;101472.00;;;18.03;44.96
61337;BME280;47212;41.326;2.104;2023-03-14T19:41:22;101486.00;;;17.83;46.90
61337;BME280;47212;41.326;2.104;2023-03-14T19:46:33;101491.97;;;17.66;47.23
61337;BME280;47212;41.326;2.104;2023-03-14T19:51:37;101500.31;;;17.56;47.89
61337;BME280;47212;41.326;2.104;2023-03-14T19:56:38;101507.03;;;17.45;52.07
61337;BME280;47212;41.326;2.104;2023-03-14T20:01:41;101516.47;;;17.34;49.22
61337;BME280;47212;41.326;2.104;2023-03-14T20:06:52;101528.63;;;17.28;50.17
61337;BME280;47212;41.326;2.104;2023-03-14T20:11:58;101535.28;;;17.22;50.51
61337;BME280;47212;41.326;2.104;2023-03-14T20:17:03;101542.13;;;17.24;52.36
61337;BME280;47212;41.326;2.104;2023-03-14T20:22:06;101552.31;;;17.24;51.51
61337;BME280;47212;41.326;2.104;2023-03-14T20:27:08;101560.56;;;17.24;51.91
61337;BME280;47212;41.326;2.104;2023-03-14T20:32:10;101565.00;;;17.19;52.58
61337;BME280;47212;41.326;2.104;2023-03-14T20:37:12;101565.59;;;17.16;56.94
61337;BME280;47212;41.326;2.104;2023-03-14T20:42:15;101569.75;;;17.09;53.38
61337;BME280;47212;41.326;2.104;2023-03-14T20:47:19;101571.44;;;17.05;54.17
61337;BME280;47212;41.326;2.104;2023-03-14T20:52:25;101567.34;;;17.02;54.59
61337;BME280;47212;41.326;2.104;2023-03-14T20:57:28;101570.66;;;16.99;54.54
61337;BME280;47212;41.326;2.104;2023-03-14T21:02:32;101577.53;;;16.97;55.29
61337;BME280;47212;41.326;2.104;2023-03-14T21:07:40;101574.00;;;16.91;55.03
61337;BME280;47212;41.326;2.104;2023-03-14T21:12:42;101559.22;;;16.82;55.35
61337;BME280;47212;41.326;2.104;2023-03-14T21:17:44;101558.16;;;16.78;55.10
61337;BME280;47212;41.326;2.104;2023-03-14T21:22:47;101562.28;;;16.75;55.52
61337;BME280;47212;41.326;2.104;2023-03-14T21:27:50;101565.03;;;16.75;55.74
61337;BME280;47212;41.326;2.104;2023-03-14T21:32:52;101563.38;;;16.74;55.83
61337;BME280;47212;41.326;2.104;2023-03-14T21:37:55;101566.41;;;16.73;55.79
61337;BME280;47212;41.326;2.104;2023-03-14T21:42:57;101563.13;;;16.71;55.85
61337;BME280;47212;41.326;2.104;2023-03-14T21:48:00;101557.63;;;16.71;56.22
61337;BME280;47212;41.326;2.104;2023-03-14T21:53:03;101557.66;;;16.66;56.44
61337;BME280;47212;41.326;2.104;2023-03-14T21:58:06;101566.97;;;16.65;56.77
61337;BME280;47212;41.326;2.104;2023-03-14T22:03:08;101582.41;;;16.61;60.09
61337;BME280;47212;41.326;2.104;2023-03-14T22:08:15;101568.69;;;16.55;57.41
61337;BME280;47212;41.326;2.104;2023-03-14T22:13:19;101564.28;;;16.54;57.24
61337;BME280;47212;41.326;2.104;2023-03-14T22:18:21;101562.38;;;16.50;57.59
61337;BME280;47212;41.326;2.104;2023-03-14T22:23:26;101555.78;;;16.46;57.61
61337;BME280;47212;41.326;2.104;2023-03-14T22:28:35;101573.66;;;16.43;58.20
61337;BME280;47212;41.326;2.104;2023-03-14T22:33:37;101572.56;;;16.39;58.36
61337;BME280;47212;41.326;2.104;2023-03-14T22:38:39;101576.16;;;16.35;58.58
61337;BME280;47212;41.326;2.104;2023-03-14T22:43:41;101572.59;;;16.29;62.06
61337;BME280;47212;41.326;2.104;2023-03-14T22:48:43;101570.13;;;16.28;58.67
61337;BME280;47212;41.326;2.104;2023-03-14T22:53:45;101570.69;;;16.24;62.37
61337;BME280;47212;41.326;2.104;2023-03-14T22:58:47;101577.59;;;16.22;59.25
61337;BME280;47212;41.326;2.104;2023-03-14T23:03:49;101580.06;;;16.18;63.06
61337;BME280;47212;41.326;2.104;2023-03-14T23:08:51;101578.44;;;16.12;57.76
61337;BME280;47212;41.326;2.104;2023-03-14T23:13:53;101580.09;;;16.03;56.10
61337;BME280;47212;41.326;2.104;2023-03-14T23:18:57;101567.78;;;15.90;55.41
61337;BME280;47212;41.326;2.104;2023-03-14T23:24:00;101577.94;;;15.85;54.85
61337;BME280;47212;41.326;2.104;2023-03-14T23:29:06;101573.28;;;15.80;54.98
61337;BME280;47212;41.326;2.104;2023-03-14T23:34:08;101578.53;;;15.72;55.49
61337;BME280;47212;41.326;2.104;2023-03-14T23:39:11;101576.31;;;15.69;54.15
61337;BME280;47212;41.326;2.104;2023-03-14T23:44:20;101564.53;;;15.63;53.84
61337;BME280;47212;41.326;2.104;2023-03-14T23:49:23;101570.03;;;15.63;53.77
61337;BME280;47212;41.326;2.104;2023-03-14T23:54:25;101557.69;;;15.60;54.38
61337;BME280;47212;41.326;2.104;2023-03-14T23:59:29;101555.16;;;15.54;53.71
